• Join FlightAware (Why Join?)
  • Login
  • US Flag 
05:36PM EDT


 

Airport Tracker/Info


-or-


 

Live Flight TrackerFlight Track Log ✈ N960DL ✈ 20-Jun-2013 ✈ KATL - KMKE

Flight Track Log - Related Links

Times and Time Zones

All times are in EDT time to prevent confusion due to time zone crossing. See the N960DL flight status page for this flight to view local times or setup timezone preferences in your user account.

Time Position Orientation Groundspeed Altitude Reporting Facility
EDT Latitude Longitude Course Direction KTS MPH feet Rate Location/Type
03:30PM 33.6500 -84.3333 323° Northwest 228 262 3,600  Level Atlanta TRACON
03:31PM 33.6667 -84.2500 76° East 259 298 6,500 2,700 Climbing Atlanta TRACON
03:32PM 33.8280 -84.1667 North  Level FlightAware Approximate
03:32PM 33.7167 -84.1833 48° Northeast 287 330 9,100  Level Atlanta TRACON
03:33PM 33.9213 -84.2546 320° Northwest  Level FlightAware Approximate
03:34PM 34.0133 -84.3466 320° Northwest  Level FlightAware Approximate
03:34PM 33.8756 -84.2139 351° North 301 346 9,900  Level Atlanta Center
03:35PM 34.1096 -84.4253 323° Northwest  Level FlightAware Approximate
03:35PM 33.9567 -84.2942 321° Northwest 343 395 12,400  Level Atlanta Center
03:36PM 34.2052 -84.5122 323° Northwest  Level FlightAware Approximate
03:36PM 34.0483 -84.3847 321° Northwest 383 441 14,900  Level Atlanta Center
03:37PM 34.1503 -84.4706 325° Northwest 422 486 17,300 2,040 Climbing Atlanta Center
03:38PM 34.2461 -84.5589 323° Northwest 430 495 19,000 1,560 Climbing Atlanta Center
03:39PM 34.3461 -84.6125 336° Northwest 436 502 20,500 1,620 Climbing Atlanta Center
03:40PM 34.4711 -84.6408 349° North 441 507 22,300 1,620 Climbing Atlanta Center
03:41PM 34.5983 -84.6697 349° North 459 528 23,800 1,800 Climbing Atlanta Center
03:42PM 34.7336 -84.7136 345° North 465 535 25,900 2,040 Climbing Atlanta Center
03:43PM 34.8522 -84.7703 339° North 458 527 27,900 1,920 Climbing Atlanta Center
03:44PM 34.9667 -84.8219 340° North 452 520 29,800 1,560 Climbing Atlanta Center
03:45PM 35.0853 -84.8689 342° North 447 514 31,100 1,080 Climbing Atlanta Center
03:46PM 35.2019 -84.9208 340° North 447 514 32,000 420 Climbing Atlanta Center
03:47PM 35.3164 -84.9703 341° North 447 514 32,000  Level Atlanta Center
03:48PM 35.4161 -85.0147 340° North 442 509 32,000  Level Atlanta Center
03:49PM 35.5325 -85.0672 340° North 442 509 32,000  Level Atlanta Center
03:50PM 35.6447 -85.1197 339° North 437 503 32,000  Level Atlanta Center
03:51PM 35.7547 -85.1750 338° Northwest 432 497 32,000  Level Atlanta Center
03:52PM 35.8669 -85.2250 340° North 432 497 32,000  Level Atlanta Center
03:53PM 35.9833 -85.2808 339° North 432 497 32,000 540 Level Atlanta Center
03:55PM 36.1939 -85.3533 344° North 438 504 33,700 660 Climbing Indianapolis Center
03:56PM 36.3339 -85.3889 348° North 428 493 34,000  Climbing Indianapolis Center
03:57PM 36.4528 -85.4128 351° North 429 494 33,800 -840 Descending Indianapolis Center
03:58PM 36.5725 -85.4389 350° North 434 499 32,300 -900 Descending Indianapolis Center
03:59PM 36.6917 -85.4717 348° North 438 504 32,000 -180 Descending Indianapolis Center
04:00PM 36.8108 -85.5036 348° North 439 505 32,000  Level Indianapolis Center
04:01PM 36.9333 -85.5358 348° North 443 510 32,000  Level Indianapolis Center
04:02PM 37.0728 -85.5814 345° North 437 503 32,000  Level Indianapolis Center
04:03PM 37.1867 -85.6264 343° North 436 502 32,000  Level Indianapolis Center
04:04PM 37.2964 -85.6683 343° North 436 502 32,000  Level Indianapolis Center
04:05PM 37.4147 -85.7108 344° North 440 506 32,000  Level Indianapolis Center
04:06PM 37.5322 -85.7556 343° North 440 506 32,000  Level Indianapolis Center
04:08PM 37.6719 -85.8081 343° North 438 504 32,000  Level Indianapolis Center
04:09PM 37.7875 -85.8517 343° North 434 499 32,000  Level Indianapolis Center
04:10PM 37.9047 -85.8967 343° North 437 503 32,000  Level Indianapolis Center
04:11PM 38.0208 -85.9386 344° North 435 501 32,000  Level Indianapolis Center
04:12PM 38.1378 -85.9831 343° North 437 503 32,000  Level Indianapolis Center
04:13PM 38.2553 -86.0264 344° North 440 506 32,000  Level Indianapolis Center
04:14PM 38.3992 -86.0817 343° North 451 519 32,000  Level Indianapolis Center
04:15PM 38.5197 -86.1275 343° North 453 521 32,000  Level Indianapolis Center
04:16PM 38.6389 -86.1739 343° North 450 518 32,000  Level Indianapolis Center
04:17PM 38.7578 -86.2206 343° North 448 516 32,000  Level Indianapolis Center
04:18PM 38.8872 -86.2706 343° North 448 516 32,000  Level Indianapolis Center
04:19PM 39.0064 -86.3178 343° North 447 514 32,000  Level Indianapolis Center
04:20PM 39.1250 -86.3656 343° North 447 514 32,000  Level Indianapolis Center
04:21PM 39.2450 -86.4136 343° North 449 517 32,000  Level Indianapolis Center
04:22PM 39.3639 -86.4619 343° North 447 514 32,000  Level Indianapolis Center
04:23PM 39.5058 -86.5194 343° North 443 510 32,000  Level Indianapolis Center
04:24PM 39.6250 -86.5686 342° North 443 510 32,000  Level Indianapolis Center
04:25PM 39.7442 -86.6181 342° North 443 510 32,000  Level Indianapolis Center
04:26PM 39.8631 -86.6658 343° North 443 510 32,000  Level Indianapolis Center
04:27PM 39.9825 -86.7128 343° North 444 511 32,000  Level Indianapolis Center
04:28PM 40.0972 -86.7767 337° Northwest 448 516 32,000  Level Indianapolis Center
04:29PM 40.2081 -86.8467 334° Northwest 445 512 32,000  Level Indianapolis Center
04:30PM 40.3186 -86.9161 334° Northwest 442 509 32,000  Level Indianapolis Center
04:31PM 40.4519 -86.9997 334° Northwest 443 510 32,000  Level Indianapolis Center
04:32PM 40.5647 -87.0683 335° Northwest 445 512 32,000  Level Indianapolis Center
04:33PM 40.6900 -87.0847 354° North 450 518 32,000  Level Indianapolis Center
04:34PM 40.8117 -87.1014 354° North 444 511 32,000  Level Indianapolis Center
04:35PM 40.9372 -87.1164 355° North 450 518 32,000  Level Indianapolis Center
04:36PM 41.0611 -87.1314 355° North 448 516 32,000  Level Indianapolis Center
04:38PM 41.2106 -87.1500 355° North 449 517 32,000 -660 Level Indianapolis Center
04:39PM 41.3639 -87.1733 353° North 439 505 30,500 -2,160 Descending Chicago Center
04:40PM 41.4889 -87.1906 354° North 453 521 26,900 -3,120 Descending Chicago Center
04:41PM 41.6369 -87.2106 354° North 451 519 24,100 -1,620 Descending Chicago Center
04:42PM 41.7561 -87.2256 355° North 439 505 23,600 -1,200 Descending Chicago Center
04:43PM 41.8736 -87.2428 354° North 431 496 21,700 -1,620 Descending Chicago Center
04:44PM 41.9900 -87.2575 355° North 426 490 20,300 -1,320 Descending Chicago Center
04:45PM 42.1031 -87.2703 355° North 414 476 19,000 -1,500 Descending Chicago Center
04:46PM 42.2397 -87.2881 354° North 413 475 17,300 -1,440 Descending Chicago Center
04:47PM 42.3439 -87.3022 354° North 406 467 16,100 -1,140 Descending Chicago Center
04:48PM 42.4533 -87.3169 354° North 397 457 15,000 -1,440 Descending Chicago Center
04:49PM 42.5589 -87.3306 355° North 384 442 13,200 -2,400 Descending Chicago Center
04:50PM 42.6808 -87.3511 353° North 372 428 10,100 -1,560 Descending Chicago Center
04:51PM 42.7578 -87.4297 323° Northwest 366 421 10,000 -60 Descending Chicago Center
04:52PM 42.8231 -87.5325 311° West 370 426 10,000  Level Chicago Center
04:53PM 42.8803 -87.6669 300° West 354 407 10,000 -420 Level Chicago Center
04:54PM 42.9303 -87.7456 311° West 306 352 9,200 -1,800 Descending Chicago Center
04:55PM 43.0075 -87.7500 358° North 280 322 6,300 -2,520 Descending Chicago Center
04:56PM 43.0858 -87.7511 359° North 282 325 4,100 -1,260 Descending Chicago Center
04:58PM 43.1183 -87.8261 301° West 256 295 3,800 -300 Descending Chicago Center